Time;durP1;ratioP1;P1;durP2;ratioP2;P2;SDS_P1;SDS_P2;PMS_P1;PMS_P2;Temp;Humidity;BMP_temperature;BMP_pressure;BME280_temperature;BME280_humidity;BME280_pressure;Samples;Min_cycle;Max_cycle;Signal;HPM_P1;HPM_P2
2022/01/31 00:03:30;;;;;;;7.00;3.50;;;5.60;35.40;;;;;;10367818;28;20221;-70
2022/01/31 00:08:33;;;;;;;6.07;3.27;;;5.50;35.60;;;;;;10384773;28;20226;-71
2022/01/31 05:09:03;;;;;;;5.67;2.80;;;5.20;39.00;;;;;;10443597;28;20255;-73
2022/01/31 05:14:06;;;;;;;4.57;2.60;;;5.20;38.60;;;;;;10466030;28;20228;-73
2022/01/31 05:19:09;;;;;;;8.03;2.90;;;5.30;38.60;;;;;;10483094;28;20266;-73
2022/01/31 05:24:13;;;;;;;7.70;3.03;;;5.50;38.70;;;;;;10489574;28;20764;-73
2022/01/31 05:29:17;;;;;;;7.07;2.70;;;5.40;38.70;;;;;;10469368;28;20232;-73
2022/01/31 05:34:23;;;;;;;7.67;2.77;;;5.50;38.70;;;;;;10475114;28;20231;-73
2022/01/31 05:39:28;;;;;;;7.90;2.77;;;5.60;38.90;;;;;;10466383;28;20274;-73
2022/01/31 05:44:31;;;;;;;6.10;3.30;;;5.60;38.90;;;;;;10467874;28;20232;-73
2022/01/31 05:49:35;;;;;;;7.73;3.20;;;5.70;38.70;;;;;;10469341;28;20228;-73
2022/01/31 05:54:42;;;;;;;6.27;3.30;;;5.80;38.80;;;;;;10471078;28;20221;-74
2022/01/31 05:59:45;;;;;;;4.43;2.80;;;5.80;38.70;;;;;;10470417;28;20240;-73
2022/01/31 06:04:48;;;;;;;5.93;3.23;;;5.90;38.70;;;;;;10468631;28;20227;-73
2022/01/31 06:09:53;;;;;;;6.10;3.43;;;5.90;38.70;;;;;;10464484;28;20225;-73
2022/01/31 06:14:56;;;;;;;5.53;3.20;;;5.90;38.80;;;;;;10463774;28;20225;-73
2022/01/31 06:19:59;;;;;;;5.47;3.20;;;5.90;38.70;;;;;;10459762;28;20291;-73
2022/01/31 06:25:04;;;;;;;6.00;2.83;;;6.00;38.70;;;;;;10466076;28;20220;-73
2022/01/31 06:30:09;;;;;;;7.97;3.70;;;6.00;38.80;;;;;;10463115;28;20247;-73
2022/01/31 06:35:13;;;;;;;5.10;3.03;;;6.10;38.70;;;;;;10467488;28;20610;-73
2022/01/31 06:40:17;;;;;;;6.10;3.47;;;6.10;38.70;;;;;;10465000;28;20738;-73
2022/01/31 06:45:20;;;;;;;7.47;3.50;;;6.10;38.80;;;;;;10466184;28;20259;-73
2022/01/31 06:50:25;;;;;;;5.97;3.30;;;6.10;38.60;;;;;;10467508;28;20310;-73
2022/01/31 06:55:32;;;;;;;8.67;2.97;;;6.10;38.70;;;;;;10464539;28;20251;-73
2022/01/31 07:00:35;;;;;;;8.13;3.23;;;6.20;38.80;;;;;;10462047;28;20225;-72
2022/01/31 07:05:38;;;;;;;5.93;3.20;;;6.20;38.60;;;;;;10465129;28;20228;-73
2022/01/31 07:10:51;;;;;;;7.47;3.50;;;6.20;38.80;;;;;;10455495;28;20331;-73
2022/01/31 07:15:54;;;;;;;5.20;3.17;;;6.30;38.90;;;;;;10462576;28;20240;-73
2022/01/31 07:20:57;;;;;;;4.30;3.27;;;6.20;38.80;;;;;;10460210;28;20237;-72
2022/01/31 07:26:02;;;;;;;4.73;3.17;;;6.30;38.90;;;;;;10464878;28;20224;-73
2022/01/31 07:31:05;;;;;;;5.90;3.20;;;6.30;38.90;;;;;;10468645;28;20228;-73
2022/01/31 07:36:08;;;;;;;7.07;3.40;;;6.30;38.80;;;;;;10463383;28;20232;-73
2022/01/31 07:41:14;;;;;;;6.03;3.13;;;6.30;38.80;;;;;;10460059;28;20228;-73
2022/01/31 07:46:17;;;;;;;6.30;3.30;;;6.40;38.80;;;;;;10460094;28;20233;-73
2022/01/31 07:51:21;;;;;;;4.37;2.97;;;6.40;38.70;;;;;;10461817;28;20310;-73
2022/01/31 07:56:26;;;;;;;4.30;2.60;;;6.50;38.70;;;;;;10460837;28;20225;-73
2022/01/31 08:01:29;;;;;;;4.03;2.80;;;6.50;38.50;;;;;;10460124;28;20263;-73
2022/01/31 08:06:33;;;;;;;5.60;2.67;;;6.60;38.90;;;;;;10464128;28;20243;-73
2022/01/31 08:11:37;;;;;;;3.67;2.23;;;6.60;38.80;;;;;;10466741;28;20235;-73
2022/01/31 08:16:42;;;;;;;4.23;2.40;;;6.70;39.00;;;;;;10457153;28;20236;-73
2022/01/31 08:21:45;;;;;;;4.37;2.57;;;6.70;39.00;;;;;;10458463;28;20811;-73
2022/01/31 08:26:50;;;;;;;5.63;2.70;;;6.70;39.10;;;;;;10460793;28;20323;-73
2022/01/31 08:31:53;;;;;;;5.73;3.10;;;6.60;39.50;;;;;;10465241;28;20236;-73
2022/01/31 08:36:57;;;;;;;4.00;2.93;;;6.70;39.50;;;;;;10462924;28;20224;-73
2022/01/31 08:42:02;;;;;;;3.00;2.43;;;6.60;39.70;;;;;;10460309;28;20254;-73
2022/01/31 08:47:05;;;;;;;3.80;2.60;;;6.60;40.00;;;;;;10460758;28;20231;-73
2022/01/31 08:52:09;;;;;;;4.50;2.37;;;6.60;40.00;;;;;;10462755;28;20606;-73
2022/01/31 08:57:14;;;;;;;5.30;3.67;;;6.50;40.20;;;;;;10463261;28;20232;-72
2022/01/31 09:02:18;;;;;;;7.60;4.90;;;6.50;40.70;;;;;;10471496;28;20232;-73
2022/01/31 09:07:24;;;;;;;5.70;3.53;;;6.50;40.60;;;;;;10475232;28;20633;-73
2022/01/31 09:12:32;;;;;;;7.30;4.53;;;6.40;40.60;;;;;;10466961;28;20314;-73
2022/01/31 09:17:35;;;;;;;4.70;2.80;;;6.50;41.30;;;;;;10465672;28;20221;-74
2022/01/31 09:22:38;;;;;;;3.30;2.70;;;6.40;40.70;;;;;;10465800;28;20750;-74
2022/01/31 09:27:43;;;;;;;3.40;2.43;;;6.40;40.80;;;;;;10459936;28;20267;-73
2022/01/31 09:32:46;;;;;;;4.30;2.63;;;6.40;41.30;;;;;;10462940;28;20325;-73
2022/01/31 09:37:50;;;;;;;2.80;2.50;;;6.30;41.10;;;;;;10460127;28;20236;-73
2022/01/31 09:43:12;;;;;;;2.97;2.60;;;6.30;41.40;;;;;;10462088;28;20256;-73
2022/01/31 09:48:36;;;;;;;2.30;2.10;;;6.30;41.50;;;;;;10461275;28;20228;-73
2022/01/31 09:53:41;;;;;;;4.63;2.20;;;6.20;41.50;;;;;;10463173;28;20232;-73
2022/01/31 09:58:46;;;;;;;2.83;2.03;;;6.30;41.90;;;;;;10460592;28;20257;-73
2022/01/31 10:03:51;;;;;;;3.03;2.63;;;6.40;42.00;;;;;;10469350;28;20240;-73
2022/01/31 10:09:05;;;;;;;2.60;1.90;;;6.40;42.10;;;;;;10467846;28;20235;-73
2022/01/31 10:19:43;;;;;;;1.97;1.70;;;6.50;43.20;;;;;;10449981;28;20236;-73
2022/01/31 10:24:49;;;;;;;2.37;1.90;;;6.60;42.70;;;;;;10450138;28;20232;-73
2022/01/31 10:29:55;;;;;;;1.60;1.50;;;6.70;42.70;;;;;;10454299;28;20669;-73
2022/01/31 10:35:01;;;;;;;2.80;1.90;;;6.80;43.90;;;;;;10453039;28;20228;-73
2022/01/31 10:45:42;;;;;;;1.60;1.50;;;7.00;42.60;;;;;;10455679;28;20235;-74
2022/01/31 10:51:01;;;;;;;2.40;1.80;;;7.10;43.20;;;;;;10458121;28;20232;-74
2022/01/31 10:56:04;;;;;;;1.70;1.60;;;7.20;42.80;;;;;;10450976;28;20223;-73
2022/01/31 11:01:16;;;;;;;1.83;1.57;;;7.30;42.90;;;;;;10446239;28;20323;-73
2022/01/31 11:06:21;;;;;;;2.40;2.20;;;7.40;43.10;;;;;;10462874;28;20239;-73
2022/01/31 11:11:24;;;;;;;2.00;1.90;;;7.50;42.90;;;;;;10458491;28;20242;-73
2022/01/31 11:16:29;;;;;;;1.60;1.50;;;7.60;42.70;;;;;;10461160;28;20235;-74
2022/01/31 11:21:35;;;;;;;1.50;1.40;;;7.60;42.50;;;;;;10454789;28;20717;-73
2022/01/31 11:26:40;;;;;;;1.67;1.20;;;7.70;42.20;;;;;;10454984;28;20224;-73
2022/01/31 11:31:46;;;;;;;2.03;1.30;;;7.80;41.80;;;;;;10452999;28;20316;-73
2022/01/31 11:36:51;;;;;;;2.80;1.50;;;7.70;41.80;;;;;;10451426;28;20236;-74
2022/01/31 11:41:59;;;;;;;1.70;1.60;;;7.80;42.00;;;;;;10465001;28;20269;-73
2022/01/31 11:47:06;;;;;;;2.07;1.50;;;7.80;41.90;;;;;;10465110;28;20593;-75
2022/01/31 11:52:10;;;;;;;2.17;1.60;;;7.80;41.80;;;;;;10461093;28;20248;-74
2022/01/31 11:57:15;;;;;;;3.23;1.63;;;7.80;41.80;;;;;;10462064;28;20228;-74
2022/01/31 12:02:22;;;;;;;1.60;1.50;;;7.80;42.00;;;;;;10466326;28;20239;-74
2022/01/31 12:07:39;;;;;;;1.50;1.40;;;7.80;41.80;;;;;;10457244;28;20307;-74
2022/01/31 12:12:52;;;;;;;2.17;1.60;;;7.90;41.70;;;;;;10459324;28;20260;-74
2022/01/31 12:18:15;;;;;;;2.53;1.80;;;8.00;41.60;;;;;;10456841;28;20697;-74
2022/01/31 12:23:23;;;;;;;2.77;1.40;;;8.00;41.60;;;;;;10462955;28;20673;-74
2022/01/31 12:28:48;;;;;;;1.80;1.30;;;8.10;41.20;;;;;;10462300;28;20228;-74
2022/01/31 12:33:52;;;;;;;2.97;1.30;;;8.10;41.00;;;;;;10460557;28;20240;-74
2022/01/31 12:38:55;;;;;;;1.20;1.10;;;8.20;40.60;;;;;;10469285;28;20224;-74
2022/01/31 12:44:32;;;;;;;1.47;1.23;;;8.20;40.50;;;;;;10455110;28;20239;-73
2022/01/31 12:49:36;;;;;;;4.20;1.50;;;8.20;40.00;;;;;;10448026;28;20228;-74
2022/01/31 12:54:42;;;;;;;1.73;1.40;;;8.20;40.10;;;;;;10443261;28;20938;-73
2022/01/31 12:59:49;;;;;;;1.40;1.30;;;8.20;40.20;;;;;;10448876;28;20303;-74
2022/01/31 13:04:54;;;;;;;1.83;1.30;;;8.10;40.20;;;;;;10449608;28;20229;-73
2022/01/31 13:10:07;;;;;;;1.63;1.20;;;8.10;40.30;;;;;;10446479;28;20938;-74
2022/01/31 13:15:21;;;;;;;1.67;1.30;;;8.00;40.20;;;;;;10447176;28;20231;-73
2022/01/31 13:20:25;;;;;;;3.33;1.80;;;8.00;40.40;;;;;;10451341;28;20228;-72
2022/01/31 13:25:45;;;;;;;2.73;1.87;;;8.00;40.50;;;;;;10458501;28;20278;-73
2022/01/31 13:30:49;;;;;;;2.00;1.80;;;7.90;40.40;;;;;;10468251;28;20262;-73
2022/01/31 13:36:01;;;;;;;2.07;1.47;;;7.90;40.70;;;;;;10464866;28;20232;-73
2022/01/31 13:41:04;;;;;;;1.67;1.20;;;7.80;40.80;;;;;;10464560;28;20228;-74
2022/01/31 13:46:15;;;;;;;2.43;1.20;;;7.80;40.60;;;;;;10464686;28;21016;-73
2022/01/31 13:51:29;;;;;;;1.70;1.30;;;7.80;40.70;;;;;;10467811;28;20356;-73
2022/01/31 13:56:32;;;;;;;1.70;1.47;;;7.80;40.60;;;;;;10461419;28;20235;-73
2022/01/31 14:01:39;;;;;;;2.17;1.40;;;7.80;40.60;;;;;;10465292;28;20253;-73
2022/01/31 14:06:44;;;;;;;1.67;1.27;;;7.80;40.50;;;;;;10464534;28;20221;-74
2022/01/31 14:11:47;;;;;;;1.53;1.40;;;7.80;40.40;;;;;;10462806;28;20239;-73
2022/01/31 14:16:50;;;;;;;2.17;1.53;;;7.80;40.40;;;;;;10465353;28;20229;-73
2022/01/31 14:22:44;;;;;;;1.60;1.50;;;7.80;40.40;;;;;;10441268;28;20239;-73
2022/01/31 14:27:54;;;;;;;2.30;1.40;;;7.80;40.40;;;;;;10446972;28;20307;-73
2022/01/31 14:33:01;;;;;;;1.93;1.27;;;7.80;40.50;;;;;;10461747;28;20231;-73
2022/01/31 14:38:16;;;;;;;2.53;1.30;;;7.80;40.60;;;;;;10464069;28;20787;-73
2022/01/31 14:48:58;;;;;;;0.97;0.97;;;7.70;40.60;;;;;;10459858;28;20243;-73
2022/01/31 14:54:03;;;;;;;1.30;1.10;;;7.60;40.60;;;;;;10463999;28;20607;-73
2022/01/31 14:59:08;;;;;;;1.90;1.17;;;7.60;40.80;;;;;;10456544;28;20311;-73
2022/01/31 15:04:19;;;;;;;1.30;1.07;;;7.50;40.90;;;;;;10461546;28;20604;-73
2022/01/31 15:09:23;;;;;;;1.83;1.30;;;7.50;41.30;;;;;;10459828;28;20659;-73
2022/01/31 15:14:28;;;;;;;1.63;1.03;;;7.40;41.10;;;;;;10464200;28;20281;-73
2022/01/31 15:19:31;;;;;;;2.00;1.30;;;7.40;41.20;;;;;;10463300;28;20235;-74
2022/01/31 15:24:36;;;;;;;2.30;1.53;;;7.30;41.20;;;;;;10465001;28;20227;-74
2022/01/31 15:29:41;;;;;;;1.90;1.70;;;7.30;41.30;;;;;;10460988;28;20221;-74
2022/01/31 15:34:45;;;;;;;1.90;1.40;;;7.20;41.40;;;;;;10461694;28;20270;-74
2022/01/31 15:39:48;;;;;;;2.83;2.30;;;7.20;41.90;;;;;;10461561;28;20255;-74
2022/01/31 15:44:56;;;;;;;3.47;2.10;;;7.20;41.30;;;;;;10468715;28;20232;-74
2022/01/31 15:49:59;;;;;;;2.30;1.73;;;7.10;41.50;;;;;;10460937;28;20232;-75
2022/01/31 15:55:13;;;;;;;2.53;1.57;;;7.00;41.80;;;;;;10465509;28;20311;-75
2022/01/31 16:00:18;;;;;;;3.57;2.50;;;6.90;42.00;;;;;;10467011;28;20240;-76
2022/01/31 16:05:22;;;;;;;2.80;2.20;;;6.80;42.30;;;;;;10464307;28;20290;-75
2022/01/31 16:10:25;;;;;;;3.73;2.43;;;6.70;42.30;;;;;;10463634;28;20233;-75
2022/01/31 16:15:30;;;;;;;4.53;3.63;;;6.60;42.00;;;;;;10459294;28;20239;-75
2022/01/31 16:20:34;;;;;;;2.00;1.77;;;6.50;42.40;;;;;;10467394;28;20239;-75
2022/01/31 16:25:39;;;;;;;1.97;1.70;;;6.50;42.00;;;;;;10464108;28;20228;-76
2022/01/31 16:30:45;;;;;;;1.60;1.40;;;6.40;41.80;;;;;;10473560;28;20232;-75
2022/01/31 16:35:49;;;;;;;1.87;1.50;;;6.30;42.10;;;;;;10466349;28;20239;-76
2022/01/31 16:40:52;;;;;;;1.50;1.40;;;6.20;42.30;;;;;;10466866;28;20236;-75
2022/01/31 16:45:57;;;;;;;1.30;1.20;;;6.20;42.60;;;;;;10464044;28;20243;-74
2022/01/31 16:51:00;;;;;;;1.40;1.30;;;6.20;42.70;;;;;;10465246;28;20239;-74
2022/01/31 16:56:03;;;;;;;1.20;1.10;;;6.20;42.50;;;;;;10463672;28;20251;-75
2022/01/31 17:01:28;;;;;;;1.50;1.40;;;6.20;42.70;;;;;;10471509;28;20295;-74
2022/01/31 17:06:32;;;;;;;3.13;2.33;;;6.10;43.20;;;;;;10473964;28;20247;-74
2022/01/31 17:11:37;;;;;;;1.50;1.40;;;6.20;43.50;;;;;;10461992;28;20220;-74
2022/01/31 17:16:42;;;;;;;1.60;1.50;;;6.20;43.00;;;;;;10466389;28;20231;-74
2022/01/31 17:21:45;;;;;;;1.40;1.30;;;6.10;43.60;;;;;;10466225;28;20243;-74
2022/01/31 17:26:48;;;;;;;1.00;1.00;;;6.10;43.60;;;;;;10462407;28;20602;-74
2022/01/31 17:31:53;;;;;;;1.37;1.27;;;6.10;43.60;;;;;;10458103;28;20240;-74
2022/01/31 17:36:56;;;;;;;1.20;1.20;;;6.10;43.60;;;;;;10457815;28;20225;-73
2022/01/31 17:42:02;;;;;;;1.73;1.50;;;6.10;43.60;;;;;;10461165;28;20312;-73
2022/01/31 17:47:07;;;;;;;1.50;1.40;;;6.10;44.30;;;;;;10461943;28;20224;-73
2022/01/31 17:52:10;;;;;;;1.57;1.47;;;6.10;44.30;;;;;;10465749;28;20232;-74
2022/01/31 17:57:14;;;;;;;1.60;1.50;;;6.20;43.90;;;;;;10463616;28;20256;-74
2022/01/31 18:02:19;;;;;;;1.30;1.20;;;6.20;44.30;;;;;;10465508;28;20250;-74
2022/01/31 18:07:24;;;;;;;1.10;1.10;;;6.20;44.50;;;;;;10460224;28;20259;-72
2022/01/31 18:12:28;;;;;;;1.20;1.20;;;6.20;43.90;;;;;;10468088;28;20298;-73
2022/01/31 18:17:33;;;;;;;1.40;1.30;;;6.20;44.50;;;;;;10466635;28;20229;-73
2022/01/31 18:22:37;;;;;;;1.40;1.30;;;6.20;44.80;;;;;;10467687;28;20735;-73
2022/01/31 18:27:41;;;;;;;1.40;1.30;;;6.20;44.80;;;;;;10470875;28;20732;-73
2022/01/31 18:32:47;;;;;;;1.50;1.40;;;6.20;44.40;;;;;;10465813;28;20225;-72
2022/01/31 18:37:50;;;;;;;1.77;1.23;;;6.20;45.20;;;;;;10467365;28;20228;-73
2022/01/31 18:42:54;;;;;;;1.40;1.30;;;6.10;45.10;;;;;;10467025;28;20225;-73
2022/01/31 18:48:00;;;;;;;1.50;1.40;;;6.10;44.80;;;;;;10467131;28;20228;-73
2022/01/31 18:53:04;;;;;;;1.43;1.30;;;6.10;45.10;;;;;;10474543;28;20806;-73
2022/01/31 18:58:08;;;;;;;1.47;1.37;;;6.20;44.70;;;;;;10464067;28;20232;-73
2022/01/31 19:03:13;;;;;;;1.50;1.40;;;6.20;44.60;;;;;;10469522;28;20240;-72
2022/01/31 19:08:21;;;;;;;1.60;1.50;;;6.20;45.10;;;;;;10466458;28;20311;-73
2022/01/31 19:13:29;;;;;;;3.57;1.60;;;6.20;44.70;;;;;;10465326;28;20285;-73
2022/01/31 19:18:33;;;;;;;1.60;1.50;;;6.20;44.60;;;;;;10468308;28;20734;-73
2022/01/31 19:23:37;;;;;;;1.40;1.30;;;6.30;44.80;;;;;;10466106;28;20232;-73
2022/01/31 19:28:40;;;;;;;1.50;1.40;;;6.30;44.40;;;;;;10464879;28;20228;-73
2022/01/31 19:33:45;;;;;;;1.50;1.40;;;6.30;44.40;;;;;;10465170;28;20739;-72
2022/01/31 19:38:49;;;;;;;1.50;1.40;;;6.40;44.80;;;;;;10467543;28;20224;-73
2022/01/31 19:43:54;;;;;;;1.57;1.47;;;6.50;44.10;;;;;;10464947;28;20320;-74
2022/01/31 19:48:59;;;;;;;2.17;1.97;;;6.50;44.10;;;;;;10461619;28;20220;-73
2022/01/31 19:54:02;;;;;;;2.17;1.97;;;6.50;44.10;;;;;;10464890;28;20232;-73
2022/01/31 19:59:05;;;;;;;1.77;1.67;;;6.50;43.90;;;;;;10461655;28;20247;-72
2022/01/31 20:04:10;;;;;;;2.57;2.20;;;6.50;43.90;;;;;;10461520;28;20731;-72
2022/01/31 20:09:20;;;;;;;2.00;1.90;;;6.50;44.20;;;;;;10462076;28;20236;-73
2022/01/31 20:14:24;;;;;;;1.80;1.70;;;6.50;44.00;;;;;;10464754;28;20232;-73
2022/01/31 20:19:28;;;;;;;1.87;1.73;;;6.40;44.50;;;;;;10458562;28;20243;-72
2022/01/31 20:24:32;;;;;;;2.10;1.90;;;6.40;44.40;;;;;;10475695;28;20227;-74
2022/01/31 20:29:36;;;;;;;2.30;2.10;;;6.50;44.30;;;;;;10474959;28;20239;-73
2022/01/31 20:35:18;;;;;;;1.57;1.47;;;6.50;44.00;;;;;;10461373;28;20239;-73
2022/01/31 20:40:45;;;;;;;1.83;1.73;;;6.50;45.20;;;;;;10461651;28;20242;-73
2022/01/31 20:45:48;;;;;;;1.97;1.50;;;6.50;44.10;;;;;;10465290;28;20247;-73
2022/01/31 20:50:53;;;;;;;1.70;1.60;;;6.50;43.90;;;;;;10468181;28;20232;-72
2022/01/31 20:55:56;;;;;;;1.90;1.80;;;6.50;44.30;;;;;;10469855;28;20225;-72
2022/01/31 21:01:01;;;;;;;4.00;2.80;;;6.50;44.00;;;;;;10472879;28;20243;-73
2022/01/31 21:06:13;;;;;;;2.80;1.90;;;6.50;44.40;;;;;;10467516;28;20318;-73
2022/01/31 21:11:21;;;;;;;2.03;1.80;;;6.50;44.70;;;;;;10468059;28;20282;-72
2022/01/31 21:16:26;;;;;;;1.53;1.43;;;6.50;44.30;;;;;;10465809;28;20263;-73
2022/01/31 21:21:31;;;;;;;1.83;1.50;;;6.50;43.90;;;;;;10460662;28;20311;-72
2022/01/31 21:26:35;;;;;;;1.70;1.60;;;6.50;44.40;;;;;;10458320;28;20232;-73
2022/01/31 21:31:38;;;;;;;1.50;1.40;;;6.50;44.00;;;;;;10460306;28;20716;-72
2022/01/31 21:36:43;;;;;;;1.60;1.50;;;6.50;44.20;;;;;;10455743;28;20232;-73
2022/01/31 21:41:46;;;;;;;1.60;1.50;;;6.50;44.50;;;;;;10458612;28;20235;-73
2022/01/31 21:46:49;;;;;;;1.73;1.30;;;6.50;44.10;;;;;;10455036;28;20258;-73
2022/01/31 21:51:56;;;;;;;1.50;1.40;;;6.50;44.30;;;;;;10456273;28;20229;-73
2022/01/31 21:57:00;;;;;;;3.57;1.50;;;6.50;44.60;;;;;;10456949;28;20237;-73
2022/01/31 22:02:03;;;;;;;1.80;1.30;;;6.50;44.50;;;;;;10446958;28;20235;-73
2022/01/31 22:07:08;;;;;;;1.40;1.30;;;6.50;45.30;;;;;;10460370;28;20359;-73
2022/01/31 22:12:11;;;;;;;1.60;1.50;;;6.50;44.80;;;;;;10456001;28;20319;-73
2022/01/31 22:17:15;;;;;;;2.00;1.60;;;6.50;44.60;;;;;;10458825;28;20795;-73
2022/01/31 22:22:22;;;;;;;1.30;1.20;;;6.40;45.10;;;;;;10453248;28;20238;-72
2022/01/31 22:27:26;;;;;;;1.63;1.37;;;6.40;45.10;;;;;;10457249;28;20253;-73
2022/01/31 22:32:30;;;;;;;1.63;1.53;;;6.40;44.90;;;;;;10456349;28;20240;-73
2022/01/31 22:37:49;;;;;;;1.50;1.40;;;6.40;44.90;;;;;;10458211;28;20290;-73
2022/01/31 22:42:52;;;;;;;1.97;1.40;;;6.30;45.20;;;;;;10489438;28;20301;-73
2022/01/31 22:47:55;;;;;;;1.73;1.60;;;6.30;44.90;;;;;;10491005;28;20232;-73
2022/01/31 22:53:00;;;;;;;1.53;1.43;;;6.30;45.30;;;;;;10447491;28;20561;-73
2022/01/31 22:58:03;;;;;;;2.37;1.53;;;6.30;45.30;;;;;;10444660;28;20228;-73
2022/01/31 23:03:06;;;;;;;1.30;1.30;;;6.30;45.20;;;;;;10445212;28;20225;-73
2022/01/31 23:08:11;;;;;;;1.40;1.30;;;6.30;45.30;;;;;;10451904;28;20221;-73
2022/01/31 23:13:15;;;;;;;1.40;1.30;;;6.30;45.30;;;;;;10450471;28;20243;-73
2022/01/31 23:18:29;;;;;;;1.30;1.20;;;6.40;45.10;;;;;;10449625;28;20236;-73
2022/01/31 23:50:36;;;;;;;1.20;1.10;;;6.40;45.00;;;;;;10465620;28;20241;-73
2022/01/31 23:55:45;;;;;;;1.20;1.10;;;6.40;44.90;;;;;;10457039;28;20232;-73
